Hauptseite
METAR-TAF:

METAR-TAF

Flughäfen :

Aeroflex-Andover Airport

Andover, New Jersey, Vereinigte Staaten

Breite: 41-00-32N, Länge: 074-44-12W, Höhe: 177 m

Beobachtung

Neuester Wetterbericht von vor 22 Minuten, um 22:54 UTC
Wind 3 kt aus unterschiedlichen Richtungen
Temperatur 16°C
Luftfeuchtigkeit 68%
Luftdruck 1012 hPa

METAR: K12N 142254Z AUTO VRB03KT 16/10 A2989 RMK AO1 SLP122 T01610100

Zeit: 19:16 (23:16 UTC)


TAF: fehlend

Wetterbeobachtungen und Prognosen von mehr als 4000 Flughäfen (METAR und TAF Bericht).

Die verfügbaren Stationen werden durch gelbe und rote Markierungen auf der Karte dargestellt.

Führen Sie die Maus auf sie, um den Namen der Station zu sehen.

Darauf klicken, um die Beobachtung von Wetterbeobachtungen und Prognosen zu sehen.

Um die Karte zu ändern : klicken Sie auf den grünen Tasten mit einem schwarzen Kreuz Zum Vergrößern, auf den grünen Button mit einem Gedankenstrich zu verkleinern, oder auf die grünen Pfeile für benachbarte Karten.


METAR-TAF: